Andes — 5BFM3 — position and weather

sailwx.info

Track history (hours):
 
Tides and Currents Weather Stations Pressure Air Temp Water Temp Dewpoint Dewpoint Depression Visibility Wind Speed Wind Dir Waves Ship Positions

Andes

Last reported at 2018-Apr-16 07:38 UTC. Time now 2018-Apr-20 11:03 UTC.
Position N 14°16' W 060°39'.

Length 182 m; draft 11.1 m.

Type: Tanker. MMSI: 209394000.

Date/timePositionNaut miles runAvg speedWind from/ knotsBaromVisibWave heightAir tempDewpointWater temp
2018-Apr-16 07:38N 14°16' W 060°39'112.1
2018-Apr-16 07:30N 14°16' W 060°40'712.7
2018-Apr-16 06:58N 14°16' W 060°47'612.3
2018-Apr-16 06:30N 14°16' W 060°53'612.8
2018-Apr-16 06:00N 14°16' W 060°60'713.4
2018-Apr-16 05:30N 14°16' W 061°07'813.6
2018-Apr-16 04:55N 14°16' W 061°15'  
2018-Apr-09 19:32N 27°37' W 094°20'212.8
2018-Apr-09 19:21N 27°39' W 094°22'912.3
2018-Apr-09 18:37N 27°47' W 094°25'213.2
2018-Apr-09 18:29N 27°49' W 094°25'813.1
2018-Apr-09 17:51N 27°57' W 094°26'5513.0
2018-Apr-09 13:36N 28°53' W 094°26'213.0
2018-Apr-09 13:26N 28°55' W 094°26'1312.5
2018-Apr-09 12:25N 29°08' W 094°26'1112.3
2018-Apr-09 11:29N 29°16' W 094°35'1010.4
2018-Apr-09 10:31N 29°21' W 094°45'011.6
2018-Apr-09 10:29N 29°21' W 094°46'711.2
2018-Apr-09 09:52N 29°26' W 094°50'411.2
2018-Apr-09 09:30N 29°30' W 094°52'510.2
2018-Apr-09 09:00N 29°34' W 094°55'5 9.1
2018-Apr-09 08:31N 29°38' W 094°58'4 8.8
2018-Apr-09 08:00N 29°42' W 095°00'  
2018-Apr-06 12:14N 29°43' W 095°01'1 5.4
2018-Apr-06 12:00N 29°42' W 095°00'5 9.9
2018-Apr-06 11:30N 29°38' W 094°58'611.9
2018-Apr-06 10:59N 29°32' W 094°54'611.7
2018-Apr-06 10:30N 29°27' W 094°51'611.7
2018-Apr-06 09:59N 29°22' W 094°48'610.7
2018-Apr-06 09:27N 29°21' W 094°42'511.8
2018-Apr-06 09:00N 29°18' W 094°36'4 7.1
2018-Apr-06 08:25N 29°16' W 094°32'  
Track history (hours):
 
Tides and Currents Weather Stations Pressure Air Temp Water Temp Dewpoint Dewpoint Depression Visibility Wind Speed Wind Dir Waves Ship Positions

Andes

Last reported at 2018-Apr-16 07:38 UTC. Time now 2018-Apr-20 11:03 UTC.
Position N 14°16' W 060°39'.

Length 182 m; draft 11.1 m.

Type: Tanker. MMSI: 209394000.

Date/timePositionNaut miles runAvg speedWind from/ knotsBaromVisibWave heightAir tempDewpointWater temp
2018-Apr-16 07:38N 14°16' W 060°39'112.1
2018-Apr-16 07:30N 14°16' W 060°40'712.7
2018-Apr-16 06:58N 14°16' W 060°47'612.3
2018-Apr-16 06:30N 14°16' W 060°53'612.8
2018-Apr-16 06:00N 14°16' W 060°60'713.4
2018-Apr-16 05:30N 14°16' W 061°07'813.6
2018-Apr-16 04:55N 14°16' W 061°15'  
2018-Apr-09 19:32N 27°37' W 094°20'212.8
2018-Apr-09 19:21N 27°39' W 094°22'912.3
2018-Apr-09 18:37N 27°47' W 094°25'213.2
2018-Apr-09 18:29N 27°49' W 094°25'813.1
2018-Apr-09 17:51N 27°57' W 094°26'5513.0
2018-Apr-09 13:36N 28°53' W 094°26'213.0
2018-Apr-09 13:26N 28°55' W 094°26'1312.5
2018-Apr-09 12:25N 29°08' W 094°26'1112.3
2018-Apr-09 11:29N 29°16' W 094°35'1010.4
2018-Apr-09 10:31N 29°21' W 094°45'011.6
2018-Apr-09 10:29N 29°21' W 094°46'711.2
2018-Apr-09 09:52N 29°26' W 094°50'411.2
2018-Apr-09 09:30N 29°30' W 094°52'510.2
2018-Apr-09 09:00N 29°34' W 094°55'5 9.1
2018-Apr-09 08:31N 29°38' W 094°58'4 8.8
2018-Apr-09 08:00N 29°42' W 095°00'  
2018-Apr-06 12:14N 29°43' W 095°01'1 5.4
2018-Apr-06 12:00N 29°42' W 095°00'5 9.9
2018-Apr-06 11:30N 29°38' W 094°58'611.9
2018-Apr-06 10:59N 29°32' W 094°54'611.7
2018-Apr-06 10:30N 29°27' W 094°51'611.7
2018-Apr-06 09:59N 29°22' W 094°48'610.7
2018-Apr-06 09:27N 29°21' W 094°42'511.8
2018-Apr-06 09:00N 29°18' W 094°36'4 7.1
2018-Apr-06 08:25N 29°16' W 094°32'  

Dump ship's entire track history